Aviation Digital Data Service (ADDS)

Output produced by METARs form (2256 UTC 20 January 2019)
found at http://www.aviationweather.gov/metar/data/
 
METAR text: UDYZ 202230Z 01001KT 6000 NSC M06/M09 Q1025 R09/010070 NOSIG
Conditions at: UDYZ (ZVARTNOTS , AM) observed 2230 UTC 20 January 2019
Temperature: -6.0°C (21°F)
Dewpoint: -9.0°C (16°F) [RH = 79%]
Pressure (altimeter): 30.27 inches Hg (1025.0 mb)
Winds: from the N (10 degrees) at 1 MPH (1 knots; 0.5 m/s)
Visibility: 4 miles ( 6 km)
Ceiling: at least 12,000 feet AGL
Clouds: sky clear below 12,000 feet AGL
Weather: no significant weather observed at this time

METAR text: UDYZ 202200Z 00000KT 3500 BR NSC M05/M08 Q1025 R09/010070 NOSIG
Conditions at: UDYZ (ZVARTNOTS , AM) observed 2200 UTC 20 January 2019
Temperature: -5.0°C (23°F)
Dewpoint: -8.0°C (18°F) [RH = 79%]
Pressure (altimeter): 30.27 inches Hg (1025.0 mb)
Winds: calm
Visibility: 2.17 miles (3.49 km)
Ceiling: at least 12,000 feet AGL
Clouds: sky clear below 12,000 feet AGL
Weather: BR  (mist)

METAR text: UDYZ 202130Z 00000KT 3500 BR NSC M06/M08 Q1025 R09/010070 NOSIG
Conditions at: UDYZ (ZVARTNOTS , AM) observed 2130 UTC 20 January 2019
Temperature: -6.0°C (21°F)
Dewpoint: -8.0°C (18°F) [RH = 86%]
Pressure (altimeter): 30.27 inches Hg (1025.0 mb)
Winds: calm
Visibility: 2.17 miles (3.49 km)
Ceiling: at least 12,000 feet AGL
Clouds: sky clear below 12,000 feet AGL
Weather: BR  (mist)

METAR text: UDYZ 202100Z 10001KT 3500 BR NSC M06/M09 Q1025 R09/010070 NOSIG
Conditions at: UDYZ (ZVARTNOTS , AM) observed 2100 UTC 20 January 2019
Temperature: -6.0°C (21°F)
Dewpoint: -9.0°C (16°F) [RH = 79%]
Pressure (altimeter): 30.27 inches Hg (1025.0 mb)
Winds: from the E (100 degrees) at 1 MPH (1 knots; 0.5 m/s)
Visibility: 2.17 miles (3.49 km)
Ceiling: at least 12,000 feet AGL
Clouds: sky clear below 12,000 feet AGL
Weather: BR  (mist)

METAR text: UDYZ 202030Z 11001KT 3500 BR NSC M05/M08 Q1025 R09/010070 NOSIG
Conditions at: UDYZ (ZVARTNOTS , AM) observed 2030 UTC 20 January 2019
Temperature: -5.0°C (23°F)
Dewpoint: -8.0°C (18°F) [RH = 79%]
Pressure (altimeter): 30.27 inches Hg (1025.0 mb)
Winds: from the ESE (110 degrees) at 1 MPH (1 knots; 0.5 m/s)
Visibility: 2.17 miles (3.49 km)
Ceiling: at least 12,000 feet AGL
Clouds: sky clear below 12,000 feet AGL
Weather: BR  (mist)

METAR text: UDYZ 202000Z 14001KT 6000 NSC M05/M08 Q1025 R09/010070 NOSIG
Conditions at: UDYZ (ZVARTNOTS , AM) observed 2000 UTC 20 January 2019
Temperature: -5.0°C (23°F)
Dewpoint: -8.0°C (18°F) [RH = 79%]
Pressure (altimeter): 30.27 inches Hg (1025.0 mb)
Winds: from the SE (140 degrees) at 1 MPH (1 knots; 0.5 m/s)
Visibility: 4 miles ( 6 km)
Ceiling: at least 12,000 feet AGL
Clouds: sky clear below 12,000 feet AGL
Weather: no significant weather observed at this time

METAR text: UDYZ 201930Z 05005KT 6000 NSC M03/M10 Q1025 R09/010070 NOSIG
Conditions at: UDYZ (ZVARTNOTS , AM) observed 1930 UTC 20 January 2019
Temperature: -3.0°C (27°F)
Dewpoint: -10.0°C (14°F) [RH = 58%]
Pressure (altimeter): 30.27 inches Hg (1025.0 mb)
Winds: from the NE (50 degrees) at 6 MPH (5 knots; 2.6 m/s)
Visibility: 4 miles ( 6 km)
Ceiling: at least 12,000 feet AGL
Clouds: sky clear below 12,000 feet AGL
Weather: no significant weather observed at this time

METAR text: UDYZ 201900Z 05005KT 6000 NSC M02/M10 Q1025 R09/010070 NOSIG
Conditions at: UDYZ (ZVARTNOTS , AM) observed 1900 UTC 20 January 2019
Temperature: -2.0°C (28°F)
Dewpoint: -10.0°C (14°F) [RH = 54%]
Pressure (altimeter): 30.27 inches Hg (1025.0 mb)
Winds: from the NE (50 degrees) at 6 MPH (5 knots; 2.6 m/s)
Visibility: 4 miles ( 6 km)
Ceiling: at least 12,000 feet AGL
Clouds: sky clear below 12,000 feet AGL
Weather: no significant weather observed at this time

METAR text: UDYZ 201830Z 04007KT 6000 NSC M02/M10 Q1024 R09/010070 NOSIG
Conditions at: UDYZ (ZVARTNOTS , AM) observed 1830 UTC 20 January 2019
Temperature: -2.0°C (28°F)
Dewpoint: -10.0°C (14°F) [RH = 54%]
Pressure (altimeter): 30.24 inches Hg (1024.0 mb)
Winds: from the NE (40 degrees) at 8 MPH (7 knots; 3.6 m/s)
Visibility: 4 miles ( 6 km)
Ceiling: at least 12,000 feet AGL
Clouds: sky clear below 12,000 feet AGL
Weather: no significant weather observed at this time

METAR text: UDYZ 201800Z 04006KT 6000 NSC M02/M09 Q1024 R09/010070 NOSIG
Conditions at: UDYZ (ZVARTNOTS , AM) observed 1800 UTC 20 January 2019
Temperature: -2.0°C (28°F)
Dewpoint: -9.0°C (16°F) [RH = 59%]
Pressure (altimeter): 30.24 inches Hg (1024.0 mb)
Winds: from the NE (40 degrees) at 7 MPH (6 knots; 3.1 m/s)
Visibility: 4 miles ( 6 km)
Ceiling: at least 12,000 feet AGL
Clouds: sky clear below 12,000 feet AGL
Weather: no significant weather observed at this time

METAR text: UDYZ 201730Z 03004KT 6000 NSC M02/M08 Q1024 R09/010070 NOSIG
Conditions at: UDYZ (ZVARTNOTS , AM) observed 1730 UTC 20 January 2019
Temperature: -2.0°C (28°F)
Dewpoint: -8.0°C (18°F) [RH = 63%]
Pressure (altimeter): 30.24 inches Hg (1024.0 mb)
Winds: from the NNE (30 degrees) at 5 MPH (4 knots; 2.1 m/s)
Visibility: 4 miles ( 6 km)
Ceiling: at least 12,000 feet AGL
Clouds: sky clear below 12,000 feet AGL
Weather: no significant weather observed at this time

METAR text: UDYZ 201700Z 36001KT 6000 NSC M03/M07 Q1024 R09/010070 NOSIG
Conditions at: UDYZ (ZVARTNOTS , AM) observed 1700 UTC 20 January 2019
Temperature: -3.0°C (27°F)
Dewpoint: -7.0°C (19°F) [RH = 74%]
Pressure (altimeter): 30.24 inches Hg (1024.0 mb)
Winds: from the N (360 degrees) at 1 MPH (1 knots; 0.5 m/s)
Visibility: 4 miles ( 6 km)
Ceiling: at least 12,000 feet AGL
Clouds: sky clear below 12,000 feet AGL
Weather: no significant weather observed at this time

METAR text: UDYZ 201630Z 35002KT 6000 NSC M03/M08 Q1024 R09/010070 NOSIG
Conditions at: UDYZ (ZVARTNOTS , AM) observed 1630 UTC 20 January 2019
Temperature: -3.0°C (27°F)
Dewpoint: -8.0°C (18°F) [RH = 68%]
Pressure (altimeter): 30.24 inches Hg (1024.0 mb)
Winds: from the N (350 degrees) at 2 MPH (2 knots; 1.0 m/s)
Visibility: 4 miles ( 6 km)
Ceiling: at least 12,000 feet AGL
Clouds: sky clear below 12,000 feet AGL
Weather: no significant weather observed at this time

METAR text: UDYZ 201600Z 02001KT 6000 NSC M02/M08 Q1024 R09/010070 NOSIG
Conditions at: UDYZ (ZVARTNOTS , AM) observed 1600 UTC 20 January 2019
Temperature: -2.0°C (28°F)
Dewpoint: -8.0°C (18°F) [RH = 63%]
Pressure (altimeter): 30.24 inches Hg (1024.0 mb)
Winds: from the NNE (20 degrees) at 1 MPH (1 knots; 0.5 m/s)
Visibility: 4 miles ( 6 km)
Ceiling: at least 12,000 feet AGL
Clouds: sky clear below 12,000 feet AGL
Weather: no significant weather observed at this time

METAR text: UDYZ 201530Z 00000KT 6000 NSC M00/M08 Q1024 R09/010070 NOSIG
Conditions at: UDYZ (ZVARTNOTS , AM) observed 1530 UTC 20 January 2019
Temperature: 0.0°C (32°F)
Dewpoint: -8.0°C (18°F) [RH = 55%]
Pressure (altimeter): 30.24 inches Hg (1024.0 mb)
Winds: calm
Visibility: 4 miles ( 6 km)
Ceiling: at least 12,000 feet AGL
Clouds: sky clear below 12,000 feet AGL
Weather: no significant weather observed at this time

METAR text: UDYZ 201500Z 00000KT 6000 NSC M01/M09 Q1024 R09/010070 NOSIG
Conditions at: UDYZ (ZVARTNOTS , AM) observed 1500 UTC 20 January 2019
Temperature: -1.0°C (30°F)
Dewpoint: -9.0°C (16°F) [RH = 55%]
Pressure (altimeter): 30.24 inches Hg (1024.0 mb)
Winds: calm
Visibility: 4 miles ( 6 km)
Ceiling: at least 12,000 feet AGL
Clouds: sky clear below 12,000 feet AGL
Weather: no significant weather observed at this time

METAR text: UDYZ 201430Z 24001KT 6000 NSC 01/M09 Q1023 R09/010070 NOSIG
Conditions at: UDYZ (ZVARTNOTS , AM) observed 1430 UTC 20 January 2019
Temperature: 1.0°C (34°F)
Dewpoint: -9.0°C (16°F) [RH = 47%]
Pressure (altimeter): 30.21 inches Hg (1023.0 mb)
Winds: from the WSW (240 degrees) at 1 MPH (1 knots; 0.5 m/s)
Visibility: 4 miles ( 6 km)
Ceiling: at least 12,000 feet AGL
Clouds: sky clear below 12,000 feet AGL
Weather: no significant weather observed at this time

METAR text: UDYZ 201400Z 22001KT 6000 NSC 02/M09 Q1023 R09/010070 NOSIG
Conditions at: UDYZ (ZVARTNOTS , AM) observed 1400 UTC 20 January 2019
Temperature: 2.0°C (36°F)
Dewpoint: -9.0°C (16°F) [RH = 44%]
Pressure (altimeter): 30.21 inches Hg (1023.0 mb)
Winds: from the SW (220 degrees) at 1 MPH (1 knots; 0.5 m/s)
Visibility: 4 miles ( 6 km)
Ceiling: at least 12,000 feet AGL
Clouds: sky clear below 12,000 feet AGL
Weather: no significant weather observed at this time

METAR text: UDYZ 201330Z 24001KT 6000 NSC 03/M09 Q1023 R09/010070 NOSIG
Conditions at: UDYZ (ZVARTNOTS , AM) observed 1330 UTC 20 January 2019
Temperature: 3.0°C (37°F)
Dewpoint: -9.0°C (16°F) [RH = 41%]
Pressure (altimeter): 30.21 inches Hg (1023.0 mb)
Winds: from the WSW (240 degrees) at 1 MPH (1 knots; 0.5 m/s)
Visibility: 4 miles ( 6 km)
Ceiling: at least 12,000 feet AGL
Clouds: sky clear below 12,000 feet AGL
Weather: no significant weather observed at this time

METAR text: UDYZ 201300Z VRB01KT 6000 NSC 04/M10 Q1023 R09/010070 NOSIG
Conditions at: UDYZ (ZVARTNOTS , AM) observed 1300 UTC 20 January 2019
Temperature: 4.0°C (39°F)
Dewpoint: -10.0°C (14°F) [RH = 35%]
Pressure (altimeter): 30.21 inches Hg (1023.0 mb)
Winds: variable direction winds at 1 MPH (1 knots; 0.5 m/s)
Visibility: 4 miles ( 6 km)
Ceiling: at least 12,000 feet AGL
Clouds: sky clear below 12,000 feet AGL
Weather: no significant weather observed at this time

METAR text: UDYZ 201230Z VRB01KT 6000 NSC 04/M09 Q1023 R09/010070 NOSIG
Conditions at: UDYZ (ZVARTNOTS , AM) observed 1230 UTC 20 January 2019
Temperature: 4.0°C (39°F)
Dewpoint: -9.0°C (16°F) [RH = 38%]
Pressure (altimeter): 30.21 inches Hg (1023.0 mb)
Winds: variable direction winds at 1 MPH (1 knots; 0.5 m/s)
Visibility: 4 miles ( 6 km)
Ceiling: at least 12,000 feet AGL
Clouds: sky clear below 12,000 feet AGL
Weather: no significant weather observed at this time

METAR text: UDYZ 201200Z VRB01KT 6000 NSC 04/M09 Q1023 R09/010070 NOSIG
Conditions at: UDYZ (ZVARTNOTS , AM) observed 1200 UTC 20 January 2019
Temperature: 4.0°C (39°F)
Dewpoint: -9.0°C (16°F) [RH = 38%]
Pressure (altimeter): 30.21 inches Hg (1023.0 mb)
Winds: variable direction winds at 1 MPH (1 knots; 0.5 m/s)
Visibility: 4 miles ( 6 km)
Ceiling: at least 12,000 feet AGL
Clouds: sky clear below 12,000 feet AGL
Weather: no significant weather observed at this time

METAR text: UDYZ 201130Z VRB01KT 6000 NSC 04/M08 Q1023 R09/010070 NOSIG
Conditions at: UDYZ (ZVARTNOTS , AM) observed 1130 UTC 20 January 2019
Temperature: 4.0°C (39°F)
Dewpoint: -8.0°C (18°F) [RH = 41%]
Pressure (altimeter): 30.21 inches Hg (1023.0 mb)
Winds: variable direction winds at 1 MPH (1 knots; 0.5 m/s)
Visibility: 4 miles ( 6 km)
Ceiling: at least 12,000 feet AGL
Clouds: sky clear below 12,000 feet AGL
Weather: no significant weather observed at this time

METAR text: UDYZ 201100Z VRB02KT 6000 NSC 03/M08 Q1024 R09/010070 NOSIG
Conditions at: UDYZ (ZVARTNOTS , AM) observed 1100 UTC 20 January 2019
Temperature: 3.0°C (37°F)
Dewpoint: -8.0°C (18°F) [RH = 44%]
Pressure (altimeter): 30.24 inches Hg (1024.0 mb)
Winds: variable direction winds at 2 MPH (2 knots; 1.0 m/s)
Visibility: 4 miles ( 6 km)
Ceiling: at least 12,000 feet AGL
Clouds: sky clear below 12,000 feet AGL
Weather: no significant weather observed at this time

METAR text: UDYZ 201030Z VRB01KT 6000 NSC 03/M07 Q1024 R09/010070 NOSIG
Conditions at: UDYZ (ZVARTNOTS , AM) observed 1030 UTC 20 January 2019
Temperature: 3.0°C (37°F)
Dewpoint: -7.0°C (19°F) [RH = 48%]
Pressure (altimeter): 30.24 inches Hg (1024.0 mb)
Winds: variable direction winds at 1 MPH (1 knots; 0.5 m/s)
Visibility: 4 miles ( 6 km)
Ceiling: at least 12,000 feet AGL
Clouds: sky clear below 12,000 feet AGL
Weather: no significant weather observed at this time

METAR text: UDYZ 201000Z VRB01KT 6000 NSC 02/M07 Q1024 R09/010070 NOSIG
Conditions at: UDYZ (ZVARTNOTS , AM) observed 1000 UTC 20 January 2019
Temperature: 2.0°C (36°F)
Dewpoint: -7.0°C (19°F) [RH = 51%]
Pressure (altimeter): 30.24 inches Hg (1024.0 mb)
Winds: variable direction winds at 1 MPH (1 knots; 0.5 m/s)
Visibility: 4 miles ( 6 km)
Ceiling: at least 12,000 feet AGL
Clouds: sky clear below 12,000 feet AGL
Weather: no significant weather observed at this time

METAR text: UDYZ 200930Z VRB01KT 6000 NSC 01/M07 Q1024 R09/010070 NOSIG
Conditions at: UDYZ (ZVARTNOTS , AM) observed 0930 UTC 20 January 2019
Temperature: 1.0°C (34°F)
Dewpoint: -7.0°C (19°F) [RH = 55%]
Pressure (altimeter): 30.24 inches Hg (1024.0 mb)
Winds: variable direction winds at 1 MPH (1 knots; 0.5 m/s)
Visibility: 4 miles ( 6 km)
Ceiling: at least 12,000 feet AGL
Clouds: sky clear below 12,000 feet AGL
Weather: no significant weather observed at this time

METAR text: UDYZ 200900Z VRB01KT 6000 NSC 01/M07 Q1025 R09/010070 NOSIG
Conditions at: UDYZ (ZVARTNOTS , AM) observed 0900 UTC 20 January 2019
Temperature: 1.0°C (34°F)
Dewpoint: -7.0°C (19°F) [RH = 55%]
Pressure (altimeter): 30.27 inches Hg (1025.0 mb)
Winds: variable direction winds at 1 MPH (1 knots; 0.5 m/s)
Visibility: 4 miles ( 6 km)
Ceiling: at least 12,000 feet AGL
Clouds: sky clear below 12,000 feet AGL
Weather: no significant weather observed at this time

METAR text: UDYZ 200830Z 00000KT 6000 NSC 00/M06 Q1025 R09/010070 NOSIG
Conditions at: UDYZ (ZVARTNOTS , AM) observed 0830 UTC 20 January 2019
Temperature: 0.0°C (32°F)
Dewpoint: -6.0°C (21°F) [RH = 64%]
Pressure (altimeter): 30.27 inches Hg (1025.0 mb)
Winds: calm
Visibility: 4 miles ( 6 km)
Ceiling: at least 12,000 feet AGL
Clouds: sky clear below 12,000 feet AGL
Weather: no significant weather observed at this time

METAR text: UDYZ 200800Z 00000KT 6000 NSC M01/M07 Q1026 R09/010070 NOSIG
Conditions at: UDYZ (ZVARTNOTS , AM) observed 0800 UTC 20 January 2019
Temperature: -1.0°C (30°F)
Dewpoint: -7.0°C (19°F) [RH = 64%]
Pressure (altimeter): 30.30 inches Hg (1026.0 mb)
Winds: calm
Visibility: 4 miles ( 6 km)
Ceiling: at least 12,000 feet AGL
Clouds: sky clear below 12,000 feet AGL
Weather: no significant weather observed at this time

METAR text: UDYZ 200730Z VRB01KT 6000 NSC M02/M07 Q1026 R09/010070 NOSIG
Conditions at: UDYZ (ZVARTNOTS , AM) observed 0730 UTC 20 January 2019
Temperature: -2.0°C (28°F)
Dewpoint: -7.0°C (19°F) [RH = 69%]
Pressure (altimeter): 30.30 inches Hg (1026.0 mb)
Winds: variable direction winds at 1 MPH (1 knots; 0.5 m/s)
Visibility: 4 miles ( 6 km)
Ceiling: at least 12,000 feet AGL
Clouds: sky clear below 12,000 feet AGL
Weather: no significant weather observed at this time

METAR text: UDYZ 200700Z 14001KT 3500 BR NSC M03/M07 Q1026 R09/010070 NOSIG
Conditions at: UDYZ (ZVARTNOTS , AM) observed 0700 UTC 20 January 2019
Temperature: -3.0°C (27°F)
Dewpoint: -7.0°C (19°F) [RH = 74%]
Pressure (altimeter): 30.30 inches Hg (1026.0 mb)
Winds: from the SE (140 degrees) at 1 MPH (1 knots; 0.5 m/s)
Visibility: 2.17 miles (3.49 km)
Ceiling: at least 12,000 feet AGL
Clouds: sky clear below 12,000 feet AGL
Weather: BR  (mist)

METAR text: UDYZ 200630Z 21001KT 3500 BR NSC M05/M07 Q1025 R09/010070 NOSIG
Conditions at: UDYZ (ZVARTNOTS , AM) observed 0630 UTC 20 January 2019
Temperature: -5.0°C (23°F)
Dewpoint: -7.0°C (19°F) [RH = 86%]
Pressure (altimeter): 30.27 inches Hg (1025.0 mb)
Winds: from the SSW (210 degrees) at 1 MPH (1 knots; 0.5 m/s)
Visibility: 2.17 miles (3.49 km)
Ceiling: at least 12,000 feet AGL
Clouds: sky clear below 12,000 feet AGL
Weather: BR  (mist)

METAR text: UDYZ 200600Z 00000KT 3500 BR NSC M05/M07 Q1025 R09/010070 NOSIG
Conditions at: UDYZ (ZVARTNOTS , AM) observed 0600 UTC 20 January 2019
Temperature: -5.0°C (23°F)
Dewpoint: -7.0°C (19°F) [RH = 86%]
Pressure (altimeter): 30.27 inches Hg (1025.0 mb)
Winds: calm
Visibility: 2.17 miles (3.49 km)
Ceiling: at least 12,000 feet AGL
Clouds: sky clear below 12,000 feet AGL
Weather: BR  (mist)

METAR text: UDYZ 200530Z 00000KT 3500 BR NSC M05/M07 Q1025 R09/010070 NOSIG
Conditions at: UDYZ (ZVARTNOTS , AM) observed 0530 UTC 20 January 2019
Temperature: -5.0°C (23°F)
Dewpoint: -7.0°C (19°F) [RH = 86%]
Pressure (altimeter): 30.27 inches Hg (1025.0 mb)
Winds: calm
Visibility: 2.17 miles (3.49 km)
Ceiling: at least 12,000 feet AGL
Clouds: sky clear below 12,000 feet AGL
Weather: BR  (mist)

METAR text: UDYZ 200500Z 02001KT 3500 BR NSC M08/M09 Q1025 R09/010070 NOSIG
Conditions at: UDYZ (ZVARTNOTS , AM) observed 0500 UTC 20 January 2019
Temperature: -8.0°C (18°F)
Dewpoint: -9.0°C (16°F) [RH = 92%]
Pressure (altimeter): 30.27 inches Hg (1025.0 mb)
Winds: from the NNE (20 degrees) at 1 MPH (1 knots; 0.5 m/s)
Visibility: 2.17 miles (3.49 km)
Ceiling: at least 12,000 feet AGL
Clouds: sky clear below 12,000 feet AGL
Weather: BR  (mist)

METAR text: UDYZ 200430Z 00000KT 6000 NSC M09/M10 Q1025 R09/010070 NOSIG
Conditions at: UDYZ (ZVARTNOTS , AM) observed 0430 UTC 20 January 2019
Temperature: -9.0°C (16°F)
Dewpoint: -10.0°C (14°F) [RH = 92%]
Pressure (altimeter): 30.27 inches Hg (1025.0 mb)
Winds: calm
Visibility: 4 miles ( 6 km)
Ceiling: at least 12,000 feet AGL
Clouds: sky clear below 12,000 feet AGL
Weather: no significant weather observed at this time

METAR text: UDYZ 200400Z 00000KT 6000 NSC M09/M10 Q1025 R09/010070 NOSIG
Conditions at: UDYZ (ZVARTNOTS , AM) observed 0400 UTC 20 January 2019
Temperature: -9.0°C (16°F)
Dewpoint: -10.0°C (14°F) [RH = 92%]
Pressure (altimeter): 30.27 inches Hg (1025.0 mb)
Winds: calm
Visibility: 4 miles ( 6 km)
Ceiling: at least 12,000 feet AGL
Clouds: sky clear below 12,000 feet AGL
Weather: no significant weather observed at this time

METAR text: UDYZ 200330Z 24002KT 6000 NSC M08/M10 Q1024 R09/010070 NOSIG
Conditions at: UDYZ (ZVARTNOTS , AM) observed 0330 UTC 20 January 2019
Temperature: -8.0°C (18°F)
Dewpoint: -10.0°C (14°F) [RH = 85%]
Pressure (altimeter): 30.24 inches Hg (1024.0 mb)
Winds: from the WSW (240 degrees) at 2 MPH (2 knots; 1.0 m/s)
Visibility: 4 miles ( 6 km)
Ceiling: at least 12,000 feet AGL
Clouds: sky clear below 12,000 feet AGL
Weather: no significant weather observed at this time

METAR text: UDYZ 200300Z 00000KT 6000 NSC M08/M10 Q1024 R09/010070 NOSIG
Conditions at: UDYZ (ZVARTNOTS , AM) observed 0300 UTC 20 January 2019
Temperature: -8.0°C (18°F)
Dewpoint: -10.0°C (14°F) [RH = 85%]
Pressure (altimeter): 30.24 inches Hg (1024.0 mb)
Winds: calm
Visibility: 4 miles ( 6 km)
Ceiling: at least 12,000 feet AGL
Clouds: sky clear below 12,000 feet AGL
Weather: no significant weather observed at this time

METAR text: UDYZ 200230Z 00000KT 6000 NSC M08/M10 Q1024 R09/010070 NOSIG
Conditions at: UDYZ (ZVARTNOTS , AM) observed 0230 UTC 20 January 2019
Temperature: -8.0°C (18°F)
Dewpoint: -10.0°C (14°F) [RH = 85%]
Pressure (altimeter): 30.24 inches Hg (1024.0 mb)
Winds: calm
Visibility: 4 miles ( 6 km)
Ceiling: at least 12,000 feet AGL
Clouds: sky clear below 12,000 feet AGL
Weather: no significant weather observed at this time

METAR text: UDYZ 200200Z 00000KT 6000 NSC M08/M10 Q1024 R09/010070 NOSIG
Conditions at: UDYZ (ZVARTNOTS , AM) observed 0200 UTC 20 January 2019
Temperature: -8.0°C (18°F)
Dewpoint: -10.0°C (14°F) [RH = 85%]
Pressure (altimeter): 30.24 inches Hg (1024.0 mb)
Winds: calm
Visibility: 4 miles ( 6 km)
Ceiling: at least 12,000 feet AGL
Clouds: sky clear below 12,000 feet AGL
Weather: no significant weather observed at this time

METAR text: UDYZ 200130Z 24001KT 6000 NSC M08/M10 Q1024 R09/010070 NOSIG
Conditions at: UDYZ (ZVARTNOTS , AM) observed 0130 UTC 20 January 2019
Temperature: -8.0°C (18°F)
Dewpoint: -10.0°C (14°F) [RH = 85%]
Pressure (altimeter): 30.24 inches Hg (1024.0 mb)
Winds: from the WSW (240 degrees) at 1 MPH (1 knots; 0.5 m/s)
Visibility: 4 miles ( 6 km)
Ceiling: at least 12,000 feet AGL
Clouds: sky clear below 12,000 feet AGL
Weather: no significant weather observed at this time

METAR text: UDYZ 200100Z 17001KT 6000 NSC M07/M09 Q1024 R09/010070 NOSIG
Conditions at: UDYZ (ZVARTNOTS , AM) observed 0100 UTC 20 January 2019
Temperature: -7.0°C (19°F)
Dewpoint: -9.0°C (16°F) [RH = 86%]
Pressure (altimeter): 30.24 inches Hg (1024.0 mb)
Winds: from the S (170 degrees) at 1 MPH (1 knots; 0.5 m/s)
Visibility: 4 miles ( 6 km)
Ceiling: at least 12,000 feet AGL
Clouds: sky clear below 12,000 feet AGL
Weather: no significant weather observed at this time

METAR text: UDYZ 200030Z 00000KT 6000 NSC M07/M09 Q1023 R09/010070 NOSIG
Conditions at: UDYZ (ZVARTNOTS , AM) observed 0030 UTC 20 January 2019
Temperature: -7.0°C (19°F)
Dewpoint: -9.0°C (16°F) [RH = 86%]
Pressure (altimeter): 30.21 inches Hg (1023.0 mb)
Winds: calm
Visibility: 4 miles ( 6 km)
Ceiling: at least 12,000 feet AGL
Clouds: sky clear below 12,000 feet AGL
Weather: no significant weather observed at this time

METAR text: UDYZ 200000Z 00000KT 6000 NSC M07/M09 Q1023 R09/010070 NOSIG
Conditions at: UDYZ (ZVARTNOTS , AM) observed 0000 UTC 20 January 2019
Temperature: -7.0°C (19°F)
Dewpoint: -9.0°C (16°F) [RH = 86%]
Pressure (altimeter): 30.21 inches Hg (1023.0 mb)
Winds: calm
Visibility: 4 miles ( 6 km)
Ceiling: at least 12,000 feet AGL
Clouds: sky clear below 12,000 feet AGL
Weather: no significant weather observed at this time

METAR text: UDYZ 192330Z 02001KT 6000 NSC M07/M09 Q1023 R09/010070 NOSIG
Conditions at: UDYZ (ZVARTNOTS , AM) observed 2330 UTC 19 January 2019
Temperature: -7.0°C (19°F)
Dewpoint: -9.0°C (16°F) [RH = 86%]
Pressure (altimeter): 30.21 inches Hg (1023.0 mb)
Winds: from the NNE (20 degrees) at 1 MPH (1 knots; 0.5 m/s)
Visibility: 4 miles ( 6 km)
Ceiling: at least 12,000 feet AGL
Clouds: sky clear below 12,000 feet AGL
Weather: no significant weather observed at this time

METAR text: UDYZ 192300Z 00000KT 6000 NSC M06/M08 Q1023 R09/010070 NOSIG
Conditions at: UDYZ (ZVARTNOTS , AM) observed 2300 UTC 19 January 2019
Temperature: -6.0°C (21°F)
Dewpoint: -8.0°C (18°F) [RH = 86%]
Pressure (altimeter): 30.21 inches Hg (1023.0 mb)
Winds: calm
Visibility: 4 miles ( 6 km)
Ceiling: at least 12,000 feet AGL
Clouds: sky clear below 12,000 feet AGL
Weather: no significant weather observed at this time

METAR text: UDYZ 192230Z 00000KT 6000 NSC M06/M08 Q1023 R09/010070 NOSIG
Conditions at: UDYZ (ZVARTNOTS , AM) observed 2230 UTC 19 January 2019
Temperature: -6.0°C (21°F)
Dewpoint: -8.0°C (18°F) [RH = 86%]
Pressure (altimeter): 30.21 inches Hg (1023.0 mb)
Winds: calm
Visibility: 4 miles ( 6 km)
Ceiling: at least 12,000 feet AGL
Clouds: sky clear below 12,000 feet AGL
Weather: no significant weather observed at this time

METAR text: UDYZ 192200Z 00000KT 6000 NSC M05/M08 Q1023 R09/010070 NOSIG
Conditions at: UDYZ (ZVARTNOTS , AM) observed 2200 UTC 19 January 2019
Temperature: -5.0°C (23°F)
Dewpoint: -8.0°C (18°F) [RH = 79%]
Pressure (altimeter): 30.21 inches Hg (1023.0 mb)
Winds: calm
Visibility: 4 miles ( 6 km)
Ceiling: at least 12,000 feet AGL
Clouds: sky clear below 12,000 feet AGL
Weather: no significant weather observed at this time

METAR text: UDYZ 192130Z 00000KT 6000 NSC M05/M08 Q1023 R09/010070 NOSIG
Conditions at: UDYZ (ZVARTNOTS , AM) observed 2130 UTC 19 January 2019
Temperature: -5.0°C (23°F)
Dewpoint: -8.0°C (18°F) [RH = 79%]
Pressure (altimeter): 30.21 inches Hg (1023.0 mb)
Winds: calm
Visibility: 4 miles ( 6 km)
Ceiling: at least 12,000 feet AGL
Clouds: sky clear below 12,000 feet AGL
Weather: no significant weather observed at this time

METAR text: UDYZ 192100Z 00000KT 6000 NSC M05/M08 Q1023 R09/010070 NOSIG
Conditions at: UDYZ (ZVARTNOTS , AM) observed 2100 UTC 19 January 2019
Temperature: -5.0°C (23°F)
Dewpoint: -8.0°C (18°F) [RH = 79%]
Pressure (altimeter): 30.21 inches Hg (1023.0 mb)
Winds: calm
Visibility: 4 miles ( 6 km)
Ceiling: at least 12,000 feet AGL
Clouds: sky clear below 12,000 feet AGL
Weather: no significant weather observed at this time

METAR text: UDYZ 192030Z 07002KT 6000 NSC M05/M08 Q1023 R09/010070 NOSIG
Conditions at: UDYZ (ZVARTNOTS , AM) observed 2030 UTC 19 January 2019
Temperature: -5.0°C (23°F)
Dewpoint: -8.0°C (18°F) [RH = 79%]
Pressure (altimeter): 30.21 inches Hg (1023.0 mb)
Winds: from the ENE (70 degrees) at 2 MPH (2 knots; 1.0 m/s)
Visibility: 4 miles ( 6 km)
Ceiling: at least 12,000 feet AGL
Clouds: sky clear below 12,000 feet AGL
Weather: no significant weather observed at this time

METAR text: UDYZ 192000Z 11002KT 6000 NSC M05/M07 Q1023 R09/010070 NOSIG
Conditions at: UDYZ (ZVARTNOTS , AM) observed 2000 UTC 19 January 2019
Temperature: -5.0°C (23°F)
Dewpoint: -7.0°C (19°F) [RH = 86%]
Pressure (altimeter): 30.21 inches Hg (1023.0 mb)
Winds: from the ESE (110 degrees) at 2 MPH (2 knots; 1.0 m/s)
Visibility: 4 miles ( 6 km)
Ceiling: at least 12,000 feet AGL
Clouds: sky clear below 12,000 feet AGL
Weather: no significant weather observed at this time

METAR text: UDYZ 191930Z VRB01KT 9999 NSC M03/M08 Q1023 R09/010070 NOSIG
Conditions at: UDYZ (ZVARTNOTS , AM) observed 1930 UTC 19 January 2019
Temperature: -3.0°C (27°F)
Dewpoint: -8.0°C (18°F) [RH = 68%]
Pressure (altimeter): 30.21 inches Hg (1023.0 mb)
Winds: variable direction winds at 1 MPH (1 knots; 0.5 m/s)
Visibility: 6 or more miles (10+ km)
Ceiling: at least 12,000 feet AGL
Clouds: sky clear below 12,000 feet AGL
Weather: no significant weather observed at this time

METAR text: UDYZ 191900Z 06004KT 9999 NSC M02/M09 Q1022 R09/010070 NOSIG
Conditions at: UDYZ (ZVARTNOTS , AM) observed 1900 UTC 19 January 2019
Temperature: -2.0°C (28°F)
Dewpoint: -9.0°C (16°F) [RH = 59%]
Pressure (altimeter): 30.18 inches Hg (1022.0 mb)
Winds: from the ENE (60 degrees) at 5 MPH (4 knots; 2.1 m/s)
Visibility: 6 or more miles (10+ km)
Ceiling: at least 12,000 feet AGL
Clouds: sky clear below 12,000 feet AGL
Weather: no significant weather observed at this time

METAR text: UDYZ 191830Z 05005KT 9999 NSC M02/M08 Q1022 R09/010070 NOSIG
Conditions at: UDYZ (ZVARTNOTS , AM) observed 1830 UTC 19 January 2019
Temperature: -2.0°C (28°F)
Dewpoint: -8.0°C (18°F) [RH = 63%]
Pressure (altimeter): 30.18 inches Hg (1022.0 mb)
Winds: from the NE (50 degrees) at 6 MPH (5 knots; 2.6 m/s)
Visibility: 6 or more miles (10+ km)
Ceiling: at least 12,000 feet AGL
Clouds: sky clear below 12,000 feet AGL
Weather: no significant weather observed at this time

METAR text: UDYZ 191800Z 04005KT 9999 NSC M02/M08 Q1022 R09/010070 NOSIG
Conditions at: UDYZ (ZVARTNOTS , AM) observed 1800 UTC 19 January 2019
Temperature: -2.0°C (28°F)
Dewpoint: -8.0°C (18°F) [RH = 63%]
Pressure (altimeter): 30.18 inches Hg (1022.0 mb)
Winds: from the NE (40 degrees) at 6 MPH (5 knots; 2.6 m/s)
Visibility: 6 or more miles (10+ km)
Ceiling: at least 12,000 feet AGL
Clouds: sky clear below 12,000 feet AGL
Weather: no significant weather observed at this time

METAR text: UDYZ 191730Z 03005KT 9999 NSC M02/M07 Q1022 R09/010070 NOSIG
Conditions at: UDYZ (ZVARTNOTS , AM) observed 1730 UTC 19 January 2019
Temperature: -2.0°C (28°F)
Dewpoint: -7.0°C (19°F) [RH = 69%]
Pressure (altimeter): 30.18 inches Hg (1022.0 mb)
Winds: from the NNE (30 degrees) at 6 MPH (5 knots; 2.6 m/s)
Visibility: 6 or more miles (10+ km)
Ceiling: at least 12,000 feet AGL
Clouds: sky clear below 12,000 feet AGL
Weather: no significant weather observed at this time

METAR text: UDYZ 191700Z 01003KT 9999 NSC M03/M06 Q1022 R09/010070 NOSIG
Conditions at: UDYZ (ZVARTNOTS , AM) observed 1700 UTC 19 January 2019
Temperature: -3.0°C (27°F)
Dewpoint: -6.0°C (21°F) [RH = 80%]
Pressure (altimeter): 30.18 inches Hg (1022.0 mb)
Winds: from the N (10 degrees) at 3 MPH (3 knots; 1.5 m/s)
Visibility: 6 or more miles (10+ km)
Ceiling: at least 12,000 feet AGL
Clouds: sky clear below 12,000 feet AGL
Weather: no significant weather observed at this time

METAR text: UDYZ 191630Z VRB01KT 9999 NSC M02/M06 Q1022 R09/010070 NOSIG
Conditions at: UDYZ (ZVARTNOTS , AM) observed 1630 UTC 19 January 2019
Temperature: -2.0°C (28°F)
Dewpoint: -6.0°C (21°F) [RH = 74%]
Pressure (altimeter): 30.18 inches Hg (1022.0 mb)
Winds: variable direction winds at 1 MPH (1 knots; 0.5 m/s)
Visibility: 6 or more miles (10+ km)
Ceiling: at least 12,000 feet AGL
Clouds: sky clear below 12,000 feet AGL
Weather: no significant weather observed at this time

METAR text: UDYZ 191530Z 00000KT 9999 NSC M02/M08 Q1022 R09/010070 NOSIG
Conditions at: UDYZ (ZVARTNOTS , AM) observed 1530 UTC 19 January 2019
Temperature: -2.0°C (28°F)
Dewpoint: -8.0°C (18°F) [RH = 63%]
Pressure (altimeter): 30.18 inches Hg (1022.0 mb)
Winds: calm
Visibility: 6 or more miles (10+ km)
Ceiling: at least 12,000 feet AGL
Clouds: sky clear below 12,000 feet AGL
Weather: no significant weather observed at this time

METAR text: UDYZ 191500Z 00000KT 9999 NSC M00/M08 Q1022 R09/010070 NOSIG
Conditions at: UDYZ (ZVARTNOTS , AM) observed 1500 UTC 19 January 2019
Temperature: 0.0°C (32°F)
Dewpoint: -8.0°C (18°F) [RH = 55%]
Pressure (altimeter): 30.18 inches Hg (1022.0 mb)
Winds: calm
Visibility: 6 or more miles (10+ km)
Ceiling: at least 12,000 feet AGL
Clouds: sky clear below 12,000 feet AGL
Weather: no significant weather observed at this time

METAR text: UDYZ 191430Z 07001KT 9999 NSC 00/M08 Q1021 R09/010070 NOSIG
Conditions at: UDYZ (ZVARTNOTS , AM) observed 1430 UTC 19 January 2019
Temperature: 0.0°C (32°F)
Dewpoint: -8.0°C (18°F) [RH = 55%]
Pressure (altimeter): 30.15 inches Hg (1021.0 mb)
Winds: from the ENE (70 degrees) at 1 MPH (1 knots; 0.5 m/s)
Visibility: 6 or more miles (10+ km)
Ceiling: at least 12,000 feet AGL
Clouds: sky clear below 12,000 feet AGL
Weather: no significant weather observed at this time

METAR text: UDYZ 191400Z 00000KT 9999 NSC 01/M08 Q1021 R09/010070 NOSIG
Conditions at: UDYZ (ZVARTNOTS , AM) observed 1400 UTC 19 January 2019
Temperature: 1.0°C (34°F)
Dewpoint: -8.0°C (18°F) [RH = 51%]
Pressure (altimeter): 30.15 inches Hg (1021.0 mb)
Winds: calm
Visibility: 6 or more miles (10+ km)
Ceiling: at least 12,000 feet AGL
Clouds: sky clear below 12,000 feet AGL
Weather: no significant weather observed at this time

METAR text: UDYZ 191330Z 00000KT 9999 NSC 03/M09 Q1021 R09/010070 NOSIG
Conditions at: UDYZ (ZVARTNOTS , AM) observed 1330 UTC 19 January 2019
Temperature: 3.0°C (37°F)
Dewpoint: -9.0°C (16°F) [RH = 41%]
Pressure (altimeter): 30.15 inches Hg (1021.0 mb)
Winds: calm
Visibility: 6 or more miles (10+ km)
Ceiling: at least 12,000 feet AGL
Clouds: sky clear below 12,000 feet AGL
Weather: no significant weather observed at this time

METAR text: UDYZ 191300Z 00000KT 9999 NSC 03/M09 Q1021 R09/010070 NOSIG
Conditions at: UDYZ (ZVARTNOTS , AM) observed 1300 UTC 19 January 2019
Temperature: 3.0°C (37°F)
Dewpoint: -9.0°C (16°F) [RH = 41%]
Pressure (altimeter): 30.15 inches Hg (1021.0 mb)
Winds: calm
Visibility: 6 or more miles (10+ km)
Ceiling: at least 12,000 feet AGL
Clouds: sky clear below 12,000 feet AGL
Weather: no significant weather observed at this time

METAR text: UDYZ 191230Z VRB01KT 9999 NSC 03/M09 Q1021 R09/010070 NOSIG
Conditions at: UDYZ (ZVARTNOTS , AM) observed 1230 UTC 19 January 2019
Temperature: 3.0°C (37°F)
Dewpoint: -9.0°C (16°F) [RH = 41%]
Pressure (altimeter): 30.15 inches Hg (1021.0 mb)
Winds: variable direction winds at 1 MPH (1 knots; 0.5 m/s)
Visibility: 6 or more miles (10+ km)
Ceiling: at least 12,000 feet AGL
Clouds: sky clear below 12,000 feet AGL
Weather: no significant weather observed at this time

METAR text: UDYZ 191200Z 00000KT 9999 NSC 03/M08 Q1021 R09/010070 NOSIG
Conditions at: UDYZ (ZVARTNOTS , AM) observed 1200 UTC 19 January 2019
Temperature: 3.0°C (37°F)
Dewpoint: -8.0°C (18°F) [RH = 44%]
Pressure (altimeter): 30.15 inches Hg (1021.0 mb)
Winds: calm
Visibility: 6 or more miles (10+ km)
Ceiling: at least 12,000 feet AGL
Clouds: sky clear below 12,000 feet AGL
Weather: no significant weather observed at this time

METAR text: UDYZ 191130Z 00000KT 9999 NSC 03/M08 Q1021 R09/010070 NOSIG
Conditions at: UDYZ (ZVARTNOTS , AM) observed 1130 UTC 19 January 2019
Temperature: 3.0°C (37°F)
Dewpoint: -8.0°C (18°F) [RH = 44%]
Pressure (altimeter): 30.15 inches Hg (1021.0 mb)
Winds: calm
Visibility: 6 or more miles (10+ km)
Ceiling: at least 12,000 feet AGL
Clouds: sky clear below 12,000 feet AGL
Weather: no significant weather observed at this time

METAR text: UDYZ 191100Z VRB01KT 9999 NSC 02/M08 Q1021 R09/010070 NOSIG
Conditions at: UDYZ (ZVARTNOTS , AM) observed 1100 UTC 19 January 2019
Temperature: 2.0°C (36°F)
Dewpoint: -8.0°C (18°F) [RH = 47%]
Pressure (altimeter): 30.15 inches Hg (1021.0 mb)
Winds: variable direction winds at 1 MPH (1 knots; 0.5 m/s)
Visibility: 6 or more miles (10+ km)
Ceiling: at least 12,000 feet AGL
Clouds: sky clear below 12,000 feet AGL
Weather: no significant weather observed at this time

Forecast for: UDYZ (ZVARTNOTS , AM)
Text: TAF UDYZ 201701Z 2018/2118 VRB04KT 3500 BR NSC
Forecast period: 1800 UTC 20 January 2019 to 0600 UTC 21 January 2019
Forecast type: FROM: standard forecast or significant change
Winds: variable direction winds at 5 MPH (4 knots; 2.1 m/s)
Visibility: 2.17 miles (3.49 km)
Ceiling: unknown
Clouds: missing
Weather: BR  (mist)
Text: TEMPO 2021/2106 1000 BR
Forecast period: 2100 UTC 20 January 2019 to 0600 UTC 21 January 2019
Forecast type: TEMPORARY: The following changes expected for less than half the time period
Visibility: 0.62 miles (1.00 km)
Ceiling: unknown
Clouds: missing
Weather: BR  (mist)
Text: BECMG 2106/2108 6000 NSW NSC
Forecast period: 0600 to 1800 UTC 21 January 2019
Forecast type: BECOMING: Conditions expected to become as follows by 0800 UTC 21 January 2019
Winds: variable direction winds at 5 MPH (4 knots; 2.1 m/s)
Visibility: 4 miles (6 km)
Ceiling: unknown
Clouds: missing
Weather: NSW  (no significant weather)